sensor_id;sensor_type;location;lat;lon;timestamp;pressure;altitude;pressure_sealevel;temperature;humidity
10732;BME280;5417;42.686;23.244;2023-07-22T00:04:34;94213.84;;;25.98;50.25
10732;BME280;5417;42.686;23.244;2023-07-22T00:07:01;94219.47;;;26.08;51.33
10732;BME280;5417;42.686;23.244;2023-07-22T00:09:32;94224.06;;;26.01;50.68
10732;BME280;5417;42.686;23.244;2023-07-22T00:12:22;94240.69;;;26.03;51.21
10732;BME280;5417;42.686;23.244;2023-07-22T00:21:51;94207.25;;;25.64;52.90
10732;BME280;5417;42.686;23.244;2023-07-22T00:24:22;94218.13;;;25.62;52.56
10732;BME280;5417;42.686;23.244;2023-07-22T00:30:26;94239.63;;;25.67;52.75
10732;BME280;5417;42.686;23.244;2023-07-22T00:33:02;94235.34;;;25.66;52.47
10732;BME280;5417;42.686;23.244;2023-07-22T00:35:31;94238.00;;;25.66;52.96
10732;BME280;5417;42.686;23.244;2023-07-22T00:38:01;94223.69;;;25.61;53.55
10732;BME280;5417;42.686;23.244;2023-07-22T00:40:29;94216.94;;;25.58;53.58
10732;BME280;5417;42.686;23.244;2023-07-22T00:43:00;94213.91;;;25.55;53.18
10732;BME280;5417;42.686;23.244;2023-07-22T00:45:30;94233.31;;;25.62;53.37
10732;BME280;5417;42.686;23.244;2023-07-22T00:48:54;94233.03;;;25.70;52.93
10732;BME280;5417;42.686;23.244;2023-07-22T00:51:23;94247.41;;;25.69;53.23
10732;BME280;5417;42.686;23.244;2023-07-22T00:53:51;94248.47;;;25.61;53.91
10732;BME280;5417;42.686;23.244;2023-07-22T00:56:21;94240.94;;;25.58;53.79
10732;BME280;5417;42.686;23.244;2023-07-22T00:58:57;94237.22;;;25.59;53.92
10732;BME280;5417;42.686;23.244;2023-07-22T01:01:25;94222.75;;;25.48;53.93
10732;BME280;5417;42.686;23.244;2023-07-22T01:03:57;94238.94;;;25.54;53.64
10732;BME280;5417;42.686;23.244;2023-07-22T01:06:24;94239.31;;;25.57;54.25
10732;BME280;5417;42.686;23.244;2023-07-22T01:08:56;94222.97;;;25.47;53.48
10732;BME280;5417;42.686;23.244;2023-07-22T01:11:25;94217.06;;;25.45;54.38
10732;BME280;5417;42.686;23.244;2023-07-22T01:13:57;94201.66;;;25.47;54.27
10732;BME280;5417;42.686;23.244;2023-07-22T01:16:28;94224.19;;;25.51;54.23
10732;BME280;5417;42.686;23.244;2023-07-22T01:18:56;94211.50;;;25.46;54.27
10732;BME280;5417;42.686;23.244;2023-07-22T01:25:00;94225.84;;;25.45;54.95
10732;BME280;5417;42.686;23.244;2023-07-22T01:27:31;94207.28;;;25.39;54.31
10732;BME280;5417;42.686;23.244;2023-07-22T01:33:28;94206.69;;;25.37;55.58
10732;BME280;5417;42.686;23.244;2023-07-22T01:35:57;94198.38;;;25.27;56.07
10732;BME280;5417;42.686;23.244;2023-07-22T01:45:22;94205.47;;;25.14;56.60
10732;BME280;5417;42.686;23.244;2023-07-22T01:47:49;94196.94;;;25.06;56.71
10732;BME280;5417;42.686;23.244;2023-07-22T01:50:16;94202.81;;;25.14;56.39
10732;BME280;5417;42.686;23.244;2023-07-22T01:53:40;94201.63;;;25.10;57.31
10732;BME280;5417;42.686;23.244;2023-07-22T01:56:15;94197.16;;;25.04;57.65
10732;BME280;5417;42.686;23.244;2023-07-22T01:58:44;94205.00;;;24.99;57.67
10732;BME280;5417;42.686;23.244;2023-07-22T02:01:13;94196.78;;;24.94;57.24
10732;BME280;5417;42.686;23.244;2023-07-22T02:03:41;94199.88;;;24.91;57.58
10732;BME280;5417;42.686;23.244;2023-07-22T02:06:12;94198.25;;;24.90;57.93
10732;BME280;5417;42.686;23.244;2023-07-22T02:09:33;94195.38;;;24.98;57.99
10732;BME280;5417;42.686;23.244;2023-07-22T02:11:53;94189.88;;;24.86;58.08
10732;BME280;5417;42.686;23.244;2023-07-22T02:14:32;94189.66;;;24.88;57.75
10732;BME280;5417;42.686;23.244;2023-07-22T02:17:01;94198.91;;;24.85;58.22
10732;BME280;5417;42.686;23.244;2023-07-22T02:19:32;94174.94;;;24.61;58.63
10732;BME280;5417;42.686;23.244;2023-07-22T02:21:59;94197.16;;;24.73;58.67
10732;BME280;5417;42.686;23.244;2023-07-22T02:24:30;94203.94;;;24.69;58.71
10732;BME280;5417;42.686;23.244;2023-07-22T02:26:57;94187.06;;;24.57;58.33
10732;BME280;5417;42.686;23.244;2023-07-22T02:29:25;94191.94;;;24.60;58.28
10732;BME280;5417;42.686;23.244;2023-07-22T02:32:00;94213.63;;;24.63;57.69
10732;BME280;5417;42.686;23.244;2023-07-22T02:38:23;94210.63;;;24.53;58.05
10732;BME280;5417;42.686;23.244;2023-07-22T02:41:47;94220.22;;;24.54;58.30
10732;BME280;5417;42.686;23.244;2023-07-22T02:50:08;94216.16;;;24.51;58.55
10732;BME280;5417;42.686;23.244;2023-07-22T02:53:49;94213.72;;;24.50;57.99
10732;BME280;5417;42.686;23.244;2023-07-22T02:56:12;94218.22;;;24.49;57.75
10732;BME280;5417;42.686;23.244;2023-07-22T02:59:01;94220.03;;;24.56;56.92
10732;BME280;5417;42.686;23.244;2023-07-22T03:01:28;94222.50;;;24.50;57.74
10732;BME280;5417;42.686;23.244;2023-07-22T03:07:39;94222.91;;;24.54;57.29
10732;BME280;5417;42.686;23.244;2023-07-22T03:10:07;94221.91;;;24.48;57.64
10732;BME280;5417;42.686;23.244;2023-07-22T03:12:37;94221.31;;;24.46;57.78
10732;BME280;5417;42.686;23.244;2023-07-22T03:15:05;94219.69;;;24.45;57.56
10732;BME280;5417;42.686;23.244;2023-07-22T03:17:34;94223.97;;;24.46;58.02
10732;BME280;5417;42.686;23.244;2023-07-22T03:26:58;94227.00;;;24.50;56.81
10732;BME280;5417;42.686;23.244;2023-07-22T03:32:56;94238.53;;;24.37;57.04
10732;BME280;5417;42.686;23.244;2023-07-22T03:36:14;94239.25;;;24.58;56.43
10732;BME280;5417;42.686;23.244;2023-07-22T03:39:34;94243.53;;;24.59;56.54
10732;BME280;5417;42.686;23.244;2023-07-22T03:42:12;94247.97;;;24.71;56.34
10732;BME280;5417;42.686;23.244;2023-07-22T04:04:39;94260.03;;;24.74;57.02
10732;BME280;5417;42.686;23.244;2023-07-22T04:07:10;94263.63;;;24.86;56.74
10732;BME280;5417;42.686;23.244;2023-07-22T04:19:55;94265.84;;;24.89;56.32
10732;BME280;5417;42.686;23.244;2023-07-22T04:28:54;94267.06;;;25.00;57.23
10732;BME280;5417;42.686;23.244;2023-07-22T04:32:02;94281.91;;;25.14;57.47
10732;BME280;5417;42.686;23.244;2023-07-22T04:34:33;94283.19;;;25.30;56.68
10732;BME280;5417;42.686;23.244;2023-07-22T04:37:04;94278.34;;;25.45;56.26
10732;BME280;5417;42.686;23.244;2023-07-22T04:39:34;94277.19;;;25.66;55.90
10732;BME280;5417;42.686;23.244;2023-07-22T04:42:04;94285.56;;;25.88;55.76
10732;BME280;5417;42.686;23.244;2023-07-22T04:44:31;94282.47;;;26.09;55.07
10732;BME280;5417;42.686;23.244;2023-07-22T04:47:36;94278.31;;;26.13;55.46
10732;BME280;5417;42.686;23.244;2023-07-22T04:49:47;94264.28;;;25.81;55.12
10732;BME280;5417;42.686;23.244;2023-07-22T04:52:35;94286.75;;;25.92;55.66
10732;BME280;5417;42.686;23.244;2023-07-22T04:56:02;94285.13;;;26.27;54.91
10732;BME280;5417;42.686;23.244;2023-07-22T04:58:19;94280.41;;;26.89;53.45
10732;BME280;5417;42.686;23.244;2023-07-22T05:03:36;94294.09;;;28.11;50.33
10732;BME280;5417;42.686;23.244;2023-07-22T05:09:42;94293.56;;;29.06;48.58
10732;BME280;5417;42.686;23.244;2023-07-22T05:12:09;94298.41;;;29.21;47.39
10732;BME280;5417;42.686;23.244;2023-07-22T05:14:38;94299.00;;;28.95;47.50
10732;BME280;5417;42.686;23.244;2023-07-22T05:27:15;94299.75;;;29.69;47.06
10732;BME280;5417;42.686;23.244;2023-07-22T05:33:55;94284.69;;;29.34;47.45
10732;BME280;5417;42.686;23.244;2023-07-22T05:36:14;94290.38;;;29.21;47.98
10732;BME280;5417;42.686;23.244;2023-07-22T06:04:43;94321.84;;;30.92;44.98
10732;BME280;5417;42.686;23.244;2023-07-22T06:07:10;94300.69;;;30.73;44.19
10732;BME280;5417;42.686;23.244;2023-07-22T06:10:00;94329.59;;;30.66;45.52
10732;BME280;5417;42.686;23.244;2023-07-22T06:12:27;94337.13;;;30.26;46.43
10732;BME280;5417;42.686;23.244;2023-07-22T06:18:59;94325.53;;;30.42;47.30
10732;BME280;5417;42.686;23.244;2023-07-22T06:25:33;94350.59;;;30.91;45.27
10732;BME280;5417;42.686;23.244;2023-07-22T06:32:01;94352.75;;;31.38;44.63
10732;BME280;5417;42.686;23.244;2023-07-22T06:34:35;94353.69;;;31.81;43.46
10732;BME280;5417;42.686;23.244;2023-07-22T06:44:25;94345.72;;;30.66;46.24
10732;BME280;5417;42.686;23.244;2023-07-22T06:53:44;94351.28;;;31.25;45.12
10732;BME280;5417;42.686;23.244;2023-07-22T06:56:11;94349.66;;;31.02;46.07
10732;BME280;5417;42.686;23.244;2023-07-22T06:58:42;94341.63;;;31.07;45.71
10732;BME280;5417;42.686;23.244;2023-07-22T07:09:43;94337.13;;;32.83;41.43
10732;BME280;5417;42.686;23.244;2023-07-22T07:13:03;94332.59;;;33.09;40.48
10732;BME280;5417;42.686;23.244;2023-07-22T07:15:24;94326.75;;;33.33;40.22
10732;BME280;5417;42.686;23.244;2023-07-22T07:20:23;94320.03;;;33.66;38.76
10732;BME280;5417;42.686;23.244;2023-07-22T07:21:21;94331.63;;;33.81;38.85
10732;BME280;5417;42.686;23.244;2023-07-22T07:25:01;94295.19;;;33.74;39.20
10732;BME280;5417;42.686;23.244;2023-07-22T07:27:21;94322.47;;;34.13;38.28
10732;BME280;5417;42.686;23.244;2023-07-22T07:29:52;94320.28;;;34.15;38.40
10732;BME280;5417;42.686;23.244;2023-07-22T07:32:19;94325.69;;;34.15;38.51
10732;BME280;5417;42.686;23.244;2023-07-22T07:34:46;94328.91;;;34.27;38.35
10732;BME280;5417;42.686;23.244;2023-07-22T07:37:16;94311.06;;;34.31;38.42
10732;BME280;5417;42.686;23.244;2023-07-22T07:39:49;94324.84;;;34.50;38.50
10732;BME280;5417;42.686;23.244;2023-07-22T07:42:18;94313.66;;;34.72;37.56
10732;BME280;5417;42.686;23.244;2023-07-22T07:44:45;94313.09;;;34.80;37.52
10732;BME280;5417;42.686;23.244;2023-07-22T07:47:12;94304.19;;;34.74;37.84
10732;BME280;5417;42.686;23.244;2023-07-22T07:49:42;94315.00;;;34.85;37.57
10732;BME280;5417;42.686;23.244;2023-07-22T07:52:09;94301.72;;;34.93;37.31
10732;BME280;5417;42.686;23.244;2023-07-22T07:54:35;94306.50;;;35.06;36.67
10732;BME280;5417;42.686;23.244;2023-07-22T07:57:05;94303.63;;;34.93;36.93
10732;BME280;5417;42.686;23.244;2023-07-22T07:59:53;94306.59;;;34.81;37.17
10732;BME280;5417;42.686;23.244;2023-07-22T08:09:56;94304.50;;;34.63;37.71
10732;BME280;5417;42.686;23.244;2023-07-22T08:29:31;94300.22;;;35.16;38.59
10732;BME280;5417;42.686;23.244;2023-07-22T08:37:53;94266.50;;;34.98;38.98
10732;BME280;5417;42.686;23.244;2023-07-22T08:40:21;94266.31;;;34.79;38.49
10732;BME280;5417;42.686;23.244;2023-07-22T08:42:49;94259.00;;;34.85;38.58
10732;BME280;5417;42.686;23.244;2023-07-22T08:45:19;94244.94;;;34.88;38.18
10732;BME280;5417;42.686;23.244;2023-07-22T08:47:47;94242.75;;;34.80;37.15
10732;BME280;5417;42.686;23.244;2023-07-22T08:57:11;94244.66;;;34.79;36.92
10732;BME280;5417;42.686;23.244;2023-07-22T09:03:09;94243.91;;;35.18;37.44
10732;BME280;5417;42.686;23.244;2023-07-22T09:05:36;94232.09;;;35.09;37.48
10732;BME280;5417;42.686;23.244;2023-07-22T09:08:58;94236.03;;;35.22;38.63
10732;BME280;5417;42.686;23.244;2023-07-22T09:11:25;94233.94;;;34.64;39.37
10732;BME280;5417;42.686;23.244;2023-07-22T09:14:05;94229.91;;;34.62;39.20
10732;BME280;5417;42.686;23.244;2023-07-22T09:16:33;94231.81;;;34.56;38.47
10732;BME280;5417;42.686;23.244;2023-07-22T09:19:04;94212.44;;;34.29;39.46
10732;BME280;5417;42.686;23.244;2023-07-22T09:21:34;94222.06;;;34.60;37.60
10732;BME280;5417;42.686;23.244;2023-07-22T09:24:19;94215.72;;;34.80;40.81
10732;BME280;5417;42.686;23.244;2023-07-22T09:26:47;94215.16;;;34.39;37.71
10732;BME280;5417;42.686;23.244;2023-07-22T09:29:14;94222.16;;;34.30;38.50
10732;BME280;5417;42.686;23.244;2023-07-22T09:31:49;94217.59;;;34.20;40.06
10732;BME280;5417;42.686;23.244;2023-07-22T09:34:17;94220.19;;;34.56;37.86
10732;BME280;5417;42.686;23.244;2023-07-22T09:36:55;94212.00;;;34.71;35.75
10732;BME280;5417;42.686;23.244;2023-07-22T09:39:25;94213.78;;;34.96;36.04
10732;BME280;5417;42.686;23.244;2023-07-22T09:41:54;94212.22;;;35.24;35.33
10732;BME280;5417;42.686;23.244;2023-07-22T09:44:30;94214.19;;;35.52;34.94
10732;BME280;5417;42.686;23.244;2023-07-22T09:47:08;94198.88;;;35.66;35.55
10732;BME280;5417;42.686;23.244;2023-07-22T09:49:41;94207.94;;;35.81;34.55
10732;BME280;5417;42.686;23.244;2023-07-22T09:52:53;94203.97;;;36.02;35.24
10732;BME280;5417;42.686;23.244;2023-07-22T09:55:21;94187.19;;;36.00;34.17
10732;BME280;5417;42.686;23.244;2023-07-22T09:57:53;94198.31;;;35.98;33.41
10732;BME280;5417;42.686;23.244;2023-07-22T10:00:21;94205.25;;;36.10;33.34
10732;BME280;5417;42.686;23.244;2023-07-22T10:06:20;94196.19;;;36.19;32.10
10732;BME280;5417;42.686;23.244;2023-07-22T10:08:48;94198.03;;;36.24;32.54
10732;BME280;5417;42.686;23.244;2023-07-22T10:11:15;94201.84;;;36.47;32.39
10732;BME280;5417;42.686;23.244;2023-07-22T10:13:42;94197.97;;;36.53;32.92
10732;BME280;5417;42.686;23.244;2023-07-22T10:16:10;94203.19;;;36.68;32.34
10732;BME280;5417;42.686;23.244;2023-07-22T10:18:48;94196.44;;;36.65;31.74
10732;BME280;5417;42.686;23.244;2023-07-22T10:24:44;94195.63;;;36.65;31.67
10732;BME280;5417;42.686;23.244;2023-07-22T11:08:52;94163.25;;;35.54;32.85
10732;BME280;5417;42.686;23.244;2023-07-22T11:11:20;94156.00;;;35.16;31.57
10732;BME280;5417;42.686;23.244;2023-07-22T11:14:29;94158.41;;;35.17;31.74
10732;BME280;5417;42.686;23.244;2023-07-22T11:17:00;94155.00;;;35.06;32.78
10732;BME280;5417;42.686;23.244;2023-07-22T11:22:41;94153.63;;;35.09;33.08
10732;BME280;5417;42.686;23.244;2023-07-22T11:25:16;94142.94;;;35.23;33.25
10732;BME280;5417;42.686;23.244;2023-07-22T11:27:47;94144.53;;;34.95;33.15
10732;BME280;5417;42.686;23.244;2023-07-22T11:30:16;94145.75;;;35.13;33.17
10732;BME280;5417;42.686;23.244;2023-07-22T11:32:44;94159.06;;;35.04;32.12
10732;BME280;5417;42.686;23.244;2023-07-22T11:35:15;94146.53;;;34.74;32.20
10732;BME280;5417;42.686;23.244;2023-07-22T11:37:42;94139.88;;;34.61;33.00
10732;BME280;5417;42.686;23.244;2023-07-22T11:40:33;94135.81;;;34.59;33.52
10732;BME280;5417;42.686;23.244;2023-07-22T11:43:00;94126.91;;;34.58;33.05
10732;BME280;5417;42.686;23.244;2023-07-22T11:45:28;94133.72;;;34.51;33.79
10732;BME280;5417;42.686;23.244;2023-07-22T11:47:56;94134.78;;;34.55;33.23
10732;BME280;5417;42.686;23.244;2023-07-22T11:50:31;94129.06;;;34.61;33.41
10732;BME280;5417;42.686;23.244;2023-07-22T11:53:00;94133.50;;;34.81;34.79
10732;BME280;5417;42.686;23.244;2023-07-22T11:58:53;94124.47;;;35.01;34.01
10732;BME280;5417;42.686;23.244;2023-07-22T12:01:22;94138.19;;;35.09;33.43
10732;BME280;5417;42.686;23.244;2023-07-22T12:03:50;94129.47;;;35.18;33.47
10732;BME280;5417;42.686;23.244;2023-07-22T12:06:25;94125.19;;;35.11;32.58
10732;BME280;5417;42.686;23.244;2023-07-22T12:08:54;94105.28;;;34.97;32.93
10732;BME280;5417;42.686;23.244;2023-07-22T12:11:23;94112.28;;;35.03;33.75
10732;BME280;5417;42.686;23.244;2023-07-22T12:14:07;94109.44;;;34.85;33.75
10732;BME280;5417;42.686;23.244;2023-07-22T12:16:34;94121.75;;;35.01;34.30
10732;BME280;5417;42.686;23.244;2023-07-22T12:19:12;94123.22;;;34.88;34.01
10732;BME280;5417;42.686;23.244;2023-07-22T12:21:39;94114.88;;;34.74;33.77
10732;BME280;5417;42.686;23.244;2023-07-22T12:24:32;94117.28;;;34.86;34.58
10732;BME280;5417;42.686;23.244;2023-07-22T12:28:19;94108.31;;;34.91;34.29
10732;BME280;5417;42.686;23.244;2023-07-22T12:30:57;94120.97;;;35.00;35.72
10732;BME280;5417;42.686;23.244;2023-07-22T12:33:24;94108.03;;;34.92;35.10
10732;BME280;5417;42.686;23.244;2023-07-22T12:39:23;94096.75;;;35.14;34.29
10732;BME280;5417;42.686;23.244;2023-07-22T12:41:50;94101.34;;;35.14;33.89
10732;BME280;5417;42.686;23.244;2023-07-22T12:44:24;94094.75;;;35.25;35.26
10732;BME280;5417;42.686;23.244;2023-07-22T12:47:12;94088.16;;;35.07;33.76
10732;BME280;5417;42.686;23.244;2023-07-22T12:49:40;94091.00;;;34.92;33.74
10732;BME280;5417;42.686;23.244;2023-07-22T12:52:08;94084.84;;;34.86;33.69
10732;BME280;5417;42.686;23.244;2023-07-22T12:54:37;94061.38;;;34.71;34.39
10732;BME280;5417;42.686;23.244;2023-07-22T12:57:05;94085.19;;;34.69;33.78
10732;BME280;5417;42.686;23.244;2023-07-22T12:59:32;94074.25;;;34.51;34.63
10732;BME280;5417;42.686;23.244;2023-07-22T13:05:22;94069.84;;;34.60;34.98
10732;BME280;5417;42.686;23.244;2023-07-22T13:07:49;94077.00;;;34.45;35.01
10732;BME280;5417;42.686;23.244;2023-07-22T13:11:53;94079.72;;;34.40;34.76
10732;BME280;5417;42.686;23.244;2023-07-22T13:14:01;94065.09;;;34.46;33.99
10732;BME280;5417;42.686;23.244;2023-07-22T13:16:31;94056.97;;;34.46;34.90
10732;BME280;5417;42.686;23.244;2023-07-22T13:18:58;94059.03;;;34.60;34.94
10732;BME280;5417;42.686;23.244;2023-07-22T13:21:33;94067.03;;;34.75;35.11
10732;BME280;5417;42.686;23.244;2023-07-22T13:24:14;94065.28;;;34.94;35.42
10732;BME280;5417;42.686;23.244;2023-07-22T13:28:09;94059.66;;;34.86;34.68
10732;BME280;5417;42.686;23.244;2023-07-22T13:36:40;94062.19;;;34.38;35.59
10732;BME280;5417;42.686;23.244;2023-07-22T13:51:59;94050.63;;;34.17;34.60
10732;BME280;5417;42.686;23.244;2023-07-22T13:54:53;94040.94;;;34.16;35.09
10732;BME280;5417;42.686;23.244;2023-07-22T13:57:25;94046.78;;;34.28;34.04
10732;BME280;5417;42.686;23.244;2023-07-22T14:00:21;94041.94;;;34.25;33.01
10732;BME280;5417;42.686;23.244;2023-07-22T14:17:07;94045.69;;;34.39;32.80
10732;BME280;5417;42.686;23.244;2023-07-22T14:19:36;94047.84;;;34.37;33.61
10732;BME280;5417;42.686;23.244;2023-07-22T14:22:04;94046.72;;;34.43;33.33
10732;BME280;5417;42.686;23.244;2023-07-22T14:24:37;94046.94;;;34.52;33.09
10732;BME280;5417;42.686;23.244;2023-07-22T14:27:20;94052.38;;;34.47;34.19
10732;BME280;5417;42.686;23.244;2023-07-22T14:29:47;94055.00;;;34.57;34.02
10732;BME280;5417;42.686;23.244;2023-07-22T14:32:16;94056.53;;;34.68;33.34
10732;BME280;5417;42.686;23.244;2023-07-22T14:38:25;94065.41;;;34.74;29.72
10732;BME280;5417;42.686;23.244;2023-07-22T14:40:56;94060.28;;;34.72;30.86
10732;BME280;5417;42.686;23.244;2023-07-22T14:43:26;94055.13;;;34.76;30.25
10732;BME280;5417;42.686;23.244;2023-07-22T14:52:39;94041.03;;;34.79;30.93
10732;BME280;5417;42.686;23.244;2023-07-22T14:55:10;94044.53;;;34.79;31.49
10732;BME280;5417;42.686;23.244;2023-07-22T14:57:37;94041.81;;;34.85;30.06
10732;BME280;5417;42.686;23.244;2023-07-22T15:00:07;94039.94;;;34.80;29.03
10732;BME280;5417;42.686;23.244;2023-07-22T15:10:29;94033.00;;;34.69;30.00
10732;BME280;5417;42.686;23.244;2023-07-22T15:16:28;94032.53;;;34.62;30.61
10732;BME280;5417;42.686;23.244;2023-07-22T15:19:00;94038.69;;;34.67;31.51
10732;BME280;5417;42.686;23.244;2023-07-22T15:21:34;94043.53;;;34.70;30.32
10732;BME280;5417;42.686;23.244;2023-07-22T15:24:01;94054.69;;;34.64;29.77
10732;BME280;5417;42.686;23.244;2023-07-22T15:26:30;94040.06;;;34.65;30.55
10732;BME280;5417;42.686;23.244;2023-07-22T15:28:57;94021.44;;;34.63;31.19
10732;BME280;5417;42.686;23.244;2023-07-22T15:34:54;94043.53;;;34.70;29.43
10732;BME280;5417;42.686;23.244;2023-07-22T15:37:21;94044.91;;;34.68;30.58
10732;BME280;5417;42.686;23.244;2023-07-22T15:40:02;94058.19;;;34.64;30.80
10732;BME280;5417;42.686;23.244;2023-07-22T15:42:33;94044.75;;;34.54;31.81
10732;BME280;5417;42.686;23.244;2023-07-22T15:45:03;94045.56;;;34.55;32.32
10732;BME280;5417;42.686;23.244;2023-07-22T15:47:53;94042.09;;;34.49;32.49
10732;BME280;5417;42.686;23.244;2023-07-22T15:50:45;94044.34;;;34.37;33.09
10732;BME280;5417;42.686;23.244;2023-07-22T15:53:22;94035.72;;;34.25;33.50
10732;BME280;5417;42.686;23.244;2023-07-22T15:55:49;94040.69;;;34.12;33.36
10732;BME280;5417;42.686;23.244;2023-07-22T15:58:49;94048.53;;;34.09;34.12
10732;BME280;5417;42.686;23.244;2023-07-22T16:01:40;94047.59;;;33.74;34.79
10732;BME280;5417;42.686;23.244;2023-07-22T16:04:07;94051.44;;;33.58;35.17
10732;BME280;5417;42.686;23.244;2023-07-22T16:06:34;94037.78;;;33.34;35.63
10732;BME280;5417;42.686;23.244;2023-07-22T16:16:00;94028.31;;;33.21;37.01
10732;BME280;5417;42.686;23.244;2023-07-22T16:28:53;94012.94;;;33.22;38.54
10732;BME280;5417;42.686;23.244;2023-07-22T16:31:20;94007.03;;;33.15;39.29
10732;BME280;5417;42.686;23.244;2023-07-22T16:37:49;94012.66;;;33.23;39.14
10732;BME280;5417;42.686;23.244;2023-07-22T16:40:17;93995.69;;;33.18;39.05
10732;BME280;5417;42.686;23.244;2023-07-22T16:42:47;94011.59;;;33.35;40.03
10732;BME280;5417;42.686;23.244;2023-07-22T16:45:15;94016.41;;;33.28;40.32
10732;BME280;5417;42.686;23.244;2023-07-22T16:48:11;94002.69;;;33.19;41.21
10732;BME280;5417;42.686;23.244;2023-07-22T16:50:47;94018.34;;;33.22;41.59
10732;BME280;5417;42.686;23.244;2023-07-22T16:53:15;94030.75;;;33.13;40.48
10732;BME280;5417;42.686;23.244;2023-07-22T16:55:41;94042.91;;;33.10;40.14
10732;BME280;5417;42.686;23.244;2023-07-22T16:58:09;94057.75;;;33.08;39.96
10732;BME280;5417;42.686;23.244;2023-07-22T17:00:38;94068.56;;;33.03;38.94
10732;BME280;5417;42.686;23.244;2023-07-22T17:03:07;94078.53;;;32.97;40.15
10732;BME280;5417;42.686;23.244;2023-07-22T17:05:34;94075.31;;;32.90;39.79
10732;BME280;5417;42.686;23.244;2023-07-22T17:08:01;94080.97;;;32.88;40.21
10732;BME280;5417;42.686;23.244;2023-07-22T17:10:28;94051.81;;;32.70;39.73
10732;BME280;5417;42.686;23.244;2023-07-22T17:12:57;94080.13;;;32.68;39.38
10732;BME280;5417;42.686;23.244;2023-07-22T17:19:06;94085.78;;;32.56;39.80
10732;BME280;5417;42.686;23.244;2023-07-22T17:21:33;94083.88;;;32.51;40.28
10732;BME280;5417;42.686;23.244;2023-07-22T17:24:01;94081.47;;;32.45;40.58
10732;BME280;5417;42.686;23.244;2023-07-22T17:29:53;94073.38;;;32.45;40.77
10732;BME280;5417;42.686;23.244;2023-07-22T17:32:20;94055.31;;;32.40;41.09
10732;BME280;5417;42.686;23.244;2023-07-22T17:34:51;94050.75;;;32.36;40.31
10732;BME280;5417;42.686;23.244;2023-07-22T17:51:13;94118.25;;;32.09;42.57
10732;BME280;5417;42.686;23.244;2023-07-22T17:53:39;94114.44;;;31.99;43.55
10732;BME280;5417;42.686;23.244;2023-07-22T17:56:06;94119.00;;;31.89;44.21
10732;BME280;5417;42.686;23.244;2023-07-22T17:58:57;94125.97;;;31.80;44.56
10732;BME280;5417;42.686;23.244;2023-07-22T18:01:48;94130.19;;;31.70;45.58
10732;BME280;5417;42.686;23.244;2023-07-22T18:04:15;94112.59;;;31.53;45.27
10732;BME280;5417;42.686;23.244;2023-07-22T18:06:50;94147.06;;;31.56;45.90
10732;BME280;5417;42.686;23.244;2023-07-22T18:09:17;94131.94;;;31.45;46.61
10732;BME280;5417;42.686;23.244;2023-07-22T18:11:44;94134.03;;;31.37;45.96
10732;BME280;5417;42.686;23.244;2023-07-22T18:14:29;94140.50;;;31.36;46.36
10732;BME280;5417;42.686;23.244;2023-07-22T18:16:57;94139.09;;;31.29;46.71
10732;BME280;5417;42.686;23.244;2023-07-22T18:19:25;94139.63;;;31.26;46.40
10732;BME280;5417;42.686;23.244;2023-07-22T18:21:55;94141.50;;;31.25;46.18
10732;BME280;5417;42.686;23.244;2023-07-22T18:28:09;94151.84;;;31.12;45.77
10732;BME280;5417;42.686;23.244;2023-07-22T18:30:36;94146.38;;;31.01;46.58
10732;BME280;5417;42.686;23.244;2023-07-22T18:39:56;94171.31;;;30.92;46.60
10732;BME280;5417;42.686;23.244;2023-07-22T18:42:24;94171.81;;;30.89;47.17
10732;BME280;5417;42.686;23.244;2023-07-22T18:45:14;94166.16;;;30.85;46.39
10732;BME280;5417;42.686;23.244;2023-07-22T18:48:19;94168.94;;;30.68;46.78
10732;BME280;5417;42.686;23.244;2023-07-22T18:50:46;94173.19;;;30.64;46.33
10732;BME280;5417;42.686;23.244;2023-07-22T18:56:44;94170.75;;;30.63;46.70
10732;BME280;5417;42.686;23.244;2023-07-22T18:59:46;94166.06;;;30.53;47.59
10732;BME280;5417;42.686;23.244;2023-07-22T19:16:03;94172.97;;;30.44;48.12
10732;BME280;5417;42.686;23.244;2023-07-22T19:20:25;94195.97;;;30.35;48.78
10732;BME280;5417;42.686;23.244;2023-07-22T19:25:51;94197.44;;;30.21;49.79
10732;BME280;5417;42.686;23.244;2023-07-22T19:29:09;94194.91;;;30.14;49.79
10732;BME280;5417;42.686;23.244;2023-07-22T19:45:23;94200.69;;;30.50;49.13
10732;BME280;5417;42.686;23.244;2023-07-22T19:54:02;94217.09;;;30.04;53.20
10732;BME280;5417;42.686;23.244;2023-07-22T19:56:52;94225.47;;;29.91;55.06
10732;BME280;5417;42.686;23.244;2023-07-22T19:59:22;94216.16;;;29.77;56.88
10732;BME280;5417;42.686;23.244;2023-07-22T20:04:53;94221.97;;;29.52;55.33
10732;BME280;5417;42.686;23.244;2023-07-22T20:07:45;94222.53;;;29.54;53.99
10732;BME280;5417;42.686;23.244;2023-07-22T20:10:36;94223.84;;;29.51;55.17
10732;BME280;5417;42.686;23.244;2023-07-22T20:13:27;94215.22;;;29.49;55.36
10732;BME280;5417;42.686;23.244;2023-07-22T20:16:48;94220.03;;;29.47;55.74
10732;BME280;5417;42.686;23.244;2023-07-22T20:20:05;94219.44;;;29.45;55.58
10732;BME280;5417;42.686;23.244;2023-07-22T20:22:44;94234.78;;;29.33;56.99
10732;BME280;5417;42.686;23.244;2023-07-22T20:25:36;94233.59;;;29.24;57.51
10732;BME280;5417;42.686;23.244;2023-07-22T20:31:24;94222.25;;;29.05;57.78
10732;BME280;5417;42.686;23.244;2023-07-22T20:34:45;94233.88;;;28.94;58.03
10732;BME280;5417;42.686;23.244;2023-07-22T20:37:06;94240.44;;;28.86;58.54
10732;BME280;5417;42.686;23.244;2023-07-22T20:40:07;94239.63;;;28.86;58.76
10732;BME280;5417;42.686;23.244;2023-07-22T20:42:36;94227.97;;;28.80;59.59
10732;BME280;5417;42.686;23.244;2023-07-22T20:45:16;94242.34;;;28.74;59.41
10732;BME280;5417;42.686;23.244;2023-07-22T20:48:37;94250.38;;;28.74;56.70
10732;BME280;5417;42.686;23.244;2023-07-22T20:50:55;94249.38;;;28.64;58.73
10732;BME280;5417;42.686;23.244;2023-07-22T20:53:24;94253.31;;;28.61;59.81
10732;BME280;5417;42.686;23.244;2023-07-22T20:56:14;94241.81;;;28.60;60.12